Easy Peasy Solo Sail — FGD9301 — position and weather

sailwx.info

Track history (hours):
 
Tides and Currents Weather Stations Pressure Air Temp Water Temp Dewpoint Dewpoint Depression Visibility Wind Speed Wind Dir Waves Ship Positions

Easy Peasy Solo Sail

Last reported at 2018-Apr-14 21:02 UTC. Time now 2018-May-21 11:14 UTC.
Position N 47°42' W 003°35'.
Warning: this ship's position is 36 days out of date.

Length 7 m.

Type: Sailing vessel. MMSI: 227607210.

Date/timePositionNaut miles runAvg speedWind from/ knotsBaromVisibWave heightAir tempDewpointWater temp
2018-Apr-14 21:02N 47°42' W 003°35'1 5.5
2018-Apr-14 20:55N 47°41' W 003°34'3 5.6
2018-Apr-14 20:23N 47°41' W 003°30'2 5.8
2018-Apr-14 20:00N 47°41' W 003°26'3 6.3
2018-Apr-14 19:30N 47°42' W 003°22'1 0.7
2018-Apr-14 17:24N 47°44' W 003°22'  
2018-Apr-06 23:20N 47°44' W 003°22'0 0.0
2018-Apr-06 22:59N 47°44' W 003°22'0 0.0
2018-Apr-06 22:29N 47°44' W 003°22'0 0.0
2018-Apr-06 21:59N 47°44' W 003°22'2 3.6
2018-Apr-06 21:31N 47°42' W 003°22'3 5.4
2018-Apr-06 21:00N 47°41' W 003°26'0 0.8
2018-Apr-06 20:30N 47°41' W 003°27'0 0.1
2018-Apr-06 20:00N 47°41' W 003°27'3 2.2
2018-Apr-06 18:42N 47°41' W 003°31'0 1.6
2018-Apr-06 18:30N 47°41' W 003°31'6 0.2
2018-Apr-05 13:22N 47°44' W 003°22'  
Track history (hours):
 
Tides and Currents Weather Stations Pressure Air Temp Water Temp Dewpoint Dewpoint Depression Visibility Wind Speed Wind Dir Waves Ship Positions

Easy Peasy Solo Sail

Last reported at 2018-Apr-14 21:02 UTC. Time now 2018-May-21 11:14 UTC.
Position N 47°42' W 003°35'.
Warning: this ship's position is 36 days out of date.

Length 7 m.

Type: Sailing vessel. MMSI: 227607210.

Date/timePositionNaut miles runAvg speedWind from/ knotsBaromVisibWave heightAir tempDewpointWater temp
2018-Apr-14 21:02N 47°42' W 003°35'1 5.5
2018-Apr-14 20:55N 47°41' W 003°34'3 5.6
2018-Apr-14 20:23N 47°41' W 003°30'2 5.8
2018-Apr-14 20:00N 47°41' W 003°26'3 6.3
2018-Apr-14 19:30N 47°42' W 003°22'1 0.7
2018-Apr-14 17:24N 47°44' W 003°22'  
2018-Apr-06 23:20N 47°44' W 003°22'0 0.0
2018-Apr-06 22:59N 47°44' W 003°22'0 0.0
2018-Apr-06 22:29N 47°44' W 003°22'0 0.0
2018-Apr-06 21:59N 47°44' W 003°22'2 3.6
2018-Apr-06 21:31N 47°42' W 003°22'3 5.4
2018-Apr-06 21:00N 47°41' W 003°26'0 0.8
2018-Apr-06 20:30N 47°41' W 003°27'0 0.1
2018-Apr-06 20:00N 47°41' W 003°27'3 2.2
2018-Apr-06 18:42N 47°41' W 003°31'0 1.6
2018-Apr-06 18:30N 47°41' W 003°31'6 0.2
2018-Apr-05 13:22N 47°44' W 003°22'  

Dump ship's entire track history